Terminal Aerodrome Forecast
Issued by NWS Missoula, MT

Home | Current Version | Previous Version | Text Only | Print | Product List | Glossary On
Versions: 1 2 3 4 5 6 7 8 9 10 11 12 13 14 15 16 17 18 19 20 21
000
FTUS45 KMSO 012022 AAB
TAFMSO
TAF AMD
KMSO 012022Z 0120/0218 00000KT 1 1/2SM -SN BR BKN022 OVC035
     FM012100 VRB05KT 3SM -SN BR OVC025
     FM020300 VRB03KT P6SM VCSH OVC030=

USA.gov is the U.S. government's official web portal to all federal, state and local government web resources and services.